sensor_id;sensor_type;location;lat;lon;timestamp;pressure;altitude;pressure_sealevel;temperature;humidity
54122;BME280;40029;58.708;50.190;2022-11-18T16:26:59;100545.69;;;-8.25;41.16
54122;BME280;40029;58.708;50.190;2022-11-18T16:29:30;100540.84;;;-8.20;41.16
54122;BME280;40029;58.708;50.190;2022-11-18T16:32:01;100496.72;;;-8.45;41.07
54122;BME280;40029;58.708;50.190;2022-11-18T16:34:32;100544.91;;;-8.24;41.03
54122;BME280;40029;58.708;50.190;2022-11-18T16:37:03;100541.50;;;-8.24;40.80
54122;BME280;40029;58.708;50.190;2022-11-18T16:39:35;100485.44;;;-8.51;41.08
54122;BME280;40029;58.708;50.190;2022-11-18T16:42:10;100549.41;;;-8.18;40.87
54122;BME280;40029;58.708;50.190;2022-11-18T16:44:41;100537.25;;;-8.25;40.80
54122;BME280;40029;58.708;50.190;2022-11-18T16:47:12;100499.38;;;-8.42;40.39
54122;BME280;40029;58.708;50.190;2022-11-18T16:49:43;100536.59;;;-8.39;40.95
54122;BME280;40029;58.708;50.190;2022-11-18T16:52:14;100540.56;;;-8.26;40.65
54122;BME280;40029;58.708;50.190;2022-11-18T16:54:45;100545.78;;;-8.23;40.75
54122;BME280;40029;58.708;50.190;2022-11-18T16:57:16;100554.94;;;-8.25;40.73
54122;BME280;40029;58.708;50.190;2022-11-18T16:59:47;100544.88;;;-8.42;40.82
54122;BME280;40029;58.708;50.190;2022-11-18T17:02:18;100552.13;;;-8.32;41.13
54122;BME280;40029;58.708;50.190;2022-11-18T17:04:50;100556.44;;;-8.29;40.82
54122;BME280;40029;58.708;50.190;2022-11-18T17:07:20;100549.59;;;-8.32;40.75
54122;BME280;40029;58.708;50.190;2022-11-18T17:09:51;100548.84;;;-8.47;41.26
54122;BME280;40029;58.708;50.190;2022-11-18T17:12:23;100548.78;;;-8.48;40.73
54122;BME280;40029;58.708;50.190;2022-11-18T17:14:53;100537.66;;;-8.34;40.51
54122;BME280;40029;58.708;50.190;2022-11-18T17:17:24;100541.44;;;-8.26;40.39
54122;BME280;40029;58.708;50.190;2022-11-18T17:19:56;100548.09;;;-8.28;40.04
54122;BME280;40029;58.708;50.190;2022-11-18T17:22:27;100542.34;;;-8.42;40.50
54122;BME280;40029;58.708;50.190;2022-11-18T17:24:58;100541.38;;;-8.27;40.28
54122;BME280;40029;58.708;50.190;2022-11-18T17:27:29;100550.22;;;-8.36;40.51
54122;BME280;40029;58.708;50.190;2022-11-18T17:30:00;100493.38;;;-8.62;40.01
54122;BME280;40029;58.708;50.190;2022-11-18T17:32:33;100546.25;;;-8.31;40.35
54122;BME280;40029;58.708;50.190;2022-11-18T17:35:04;100542.97;;;-8.46;40.57
54122;BME280;40029;58.708;50.190;2022-11-18T17:37:36;100549.94;;;-8.42;40.69
54122;BME280;40029;58.708;50.190;2022-11-18T17:40:07;100520.75;;;-8.69;40.80
54122;BME280;40029;58.708;50.190;2022-11-18T17:42:39;100513.81;;;-8.57;40.71
54122;BME280;40029;58.708;50.190;2022-11-18T17:45:10;100543.88;;;-8.62;40.69
54122;BME280;40029;58.708;50.190;2022-11-18T17:47:41;100542.47;;;-8.57;40.65
54122;BME280;40029;58.708;50.190;2022-11-18T17:50:12;100545.22;;;-8.68;40.75
54122;BME280;40029;58.708;50.190;2022-11-18T17:52:42;100545.69;;;-8.59;40.68
54122;BME280;40029;58.708;50.190;2022-11-18T18:14:01;100559.75;;;-8.81;40.38
54122;BME280;40029;58.708;50.190;2022-11-18T18:16:49;100554.69;;;-8.97;40.85
54122;BME280;40029;58.708;50.190;2022-11-18T18:19:21;100563.63;;;-8.87;40.53
54122;BME280;40029;58.708;50.190;2022-11-18T18:21:53;100571.09;;;-8.89;40.63
54122;BME280;40029;58.708;50.190;2022-11-18T18:24:24;100569.38;;;-8.90;40.65
54122;BME280;40029;58.708;50.190;2022-11-18T18:26:55;100582.84;;;-8.89;40.59
54122;BME280;40029;58.708;50.190;2022-11-18T18:29:26;100580.25;;;-8.91;40.29
54122;BME280;40029;58.708;50.190;2022-11-18T18:31:57;100576.53;;;-8.97;40.47
54122;BME280;40029;58.708;50.190;2022-11-18T18:34:28;100569.53;;;-8.87;40.38
54122;BME280;40029;58.708;50.190;2022-11-18T18:36:59;100577.19;;;-8.85;40.40
54122;BME280;40029;58.708;50.190;2022-11-18T18:39:30;100581.69;;;-8.79;40.20
54122;BME280;40029;58.708;50.190;2022-11-18T18:42:01;100578.66;;;-8.89;40.22
54122;BME280;40029;58.708;50.190;2022-11-18T18:44:33;100579.47;;;-8.90;40.28
54122;BME280;40029;58.708;50.190;2022-11-18T18:47:22;100575.44;;;-8.86;40.14
54122;BME280;40029;58.708;50.190;2022-11-18T18:49:53;100579.06;;;-8.81;40.13
54122;BME280;40029;58.708;50.190;2022-11-18T18:52:24;100579.25;;;-8.78;39.99
54122;BME280;40029;58.708;50.190;2022-11-18T18:54:55;100588.78;;;-8.89;40.09
54122;BME280;40029;58.708;50.190;2022-11-18T18:57:27;100584.81;;;-8.84;39.84
54122;BME280;40029;58.708;50.190;2022-11-18T18:59:59;100582.22;;;-8.85;40.16
54122;BME280;40029;58.708;50.190;2022-11-18T19:02:30;100585.56;;;-8.86;39.88
54122;BME280;40029;58.708;50.190;2022-11-18T19:05:01;100581.38;;;-8.86;39.85
54122;BME280;40029;58.708;50.190;2022-11-18T19:07:34;100589.97;;;-8.82;39.81
54122;BME280;40029;58.708;50.190;2022-11-18T19:10:05;100589.13;;;-8.83;39.80
54122;BME280;40029;58.708;50.190;2022-11-18T19:12:37;100589.41;;;-8.93;39.72
54122;BME280;40029;58.708;50.190;2022-11-18T19:15:15;100601.56;;;-8.86;39.63
54122;BME280;40029;58.708;50.190;2022-11-18T19:17:46;100595.47;;;-8.89;39.59
54122;BME280;40029;58.708;50.190;2022-11-18T19:20:17;100599.50;;;-8.93;39.73
54122;BME280;40029;58.708;50.190;2022-11-18T19:23:05;100604.94;;;-9.01;39.87
54122;BME280;40029;58.708;50.190;2022-11-18T19:25:37;100587.63;;;-9.10;39.77
54122;BME280;40029;58.708;50.190;2022-11-18T19:28:09;100600.84;;;-8.99;39.49
54122;BME280;40029;58.708;50.190;2022-11-18T19:30:43;100584.41;;;-9.08;39.57
54122;BME280;40029;58.708;50.190;2022-11-18T19:33:14;100601.06;;;-9.11;39.59
54122;BME280;40029;58.708;50.190;2022-11-18T19:35:45;100614.56;;;-8.94;39.46
54122;BME280;40029;58.708;50.190;2022-11-18T19:38:16;100627.16;;;-9.11;39.94
54122;BME280;40029;58.708;50.190;2022-11-18T19:40:47;100612.69;;;-9.13;39.89
54122;BME280;40029;58.708;50.190;2022-11-18T19:43:18;100629.94;;;-9.06;39.74
54122;BME280;40029;58.708;50.190;2022-11-18T19:45:49;100627.78;;;-9.15;39.57
54122;BME280;40029;58.708;50.190;2022-11-18T19:48:22;100640.44;;;-9.29;40.10
54122;BME280;40029;58.708;50.190;2022-11-18T19:51:09;100641.91;;;-9.33;39.78
54122;BME280;40029;58.708;50.190;2022-11-18T19:53:41;100638.69;;;-9.31;39.85
54122;BME280;40029;58.708;50.190;2022-11-18T19:56:18;100658.97;;;-9.29;39.79
54122;BME280;40029;58.708;50.190;2022-11-18T19:58:50;100649.66;;;-9.30;39.79
54122;BME280;40029;58.708;50.190;2022-11-18T20:01:24;100650.84;;;-9.23;39.89
54122;BME280;40029;58.708;50.190;2022-11-18T20:03:58;100655.97;;;-9.22;39.80
54122;BME280;40029;58.708;50.190;2022-11-18T20:06:33;100626.06;;;-9.31;39.45
54122;BME280;40029;58.708;50.190;2022-11-18T20:09:09;100659.53;;;-9.03;39.13
54122;BME280;40029;58.708;50.190;2022-11-18T20:11:42;100658.66;;;-9.04;39.41
54122;BME280;40029;58.708;50.190;2022-11-18T20:14:13;100651.72;;;-9.08;39.40
54122;BME280;40029;58.708;50.190;2022-11-18T20:16:44;100653.81;;;-9.16;39.43
54122;BME280;40029;58.708;50.190;2022-11-18T20:19:16;100645.44;;;-9.15;39.60
54122;BME280;40029;58.708;50.190;2022-11-18T20:21:47;100643.72;;;-9.31;39.44
54122;BME280;40029;58.708;50.190;2022-11-18T20:24:19;100654.66;;;-9.15;39.50
54122;BME280;40029;58.708;50.190;2022-11-18T20:26:50;100648.22;;;-9.10;39.47
54122;BME280;40029;58.708;50.190;2022-11-18T20:29:21;100637.63;;;-9.19;39.30
54122;BME280;40029;58.708;50.190;2022-11-18T20:31:52;100637.31;;;-9.25;39.45
54122;BME280;40029;58.708;50.190;2022-11-18T20:34:23;100609.22;;;-9.46;39.41
54122;BME280;40029;58.708;50.190;2022-11-18T20:36:54;100642.25;;;-9.27;39.39
54122;BME280;40029;58.708;50.190;2022-11-18T20:39:25;100656.81;;;-9.38;39.79
54122;BME280;40029;58.708;50.190;2022-11-18T20:41:58;100652.53;;;-9.39;39.75
54122;BME280;40029;58.708;50.190;2022-11-18T20:44:47;100661.38;;;-9.31;40.04
54122;BME280;40029;58.708;50.190;2022-11-18T20:47:18;100663.59;;;-9.37;39.54
54122;BME280;40029;58.708;50.190;2022-11-18T20:49:49;100670.28;;;-9.52;39.80
54122;BME280;40029;58.708;50.190;2022-11-18T20:52:20;100678.81;;;-9.65;39.98
54122;BME280;40029;58.708;50.190;2022-11-18T20:54:52;100676.47;;;-9.47;39.60
54122;BME280;40029;58.708;50.190;2022-11-18T20:57:23;100676.03;;;-9.54;39.85
54122;BME280;40029;58.708;50.190;2022-11-18T20:59:54;100663.94;;;-9.45;39.62
54122;BME280;40029;58.708;50.190;2022-11-18T21:02:25;100684.81;;;-9.33;39.44
54122;BME280;40029;58.708;50.190;2022-11-18T21:04:56;100681.50;;;-9.32;39.30
54122;BME280;40029;58.708;50.190;2022-11-18T21:07:27;100679.50;;;-9.52;39.52
54122;BME280;40029;58.708;50.190;2022-11-18T21:09:58;100680.28;;;-9.53;39.52
54122;BME280;40029;58.708;50.190;2022-11-18T21:12:29;100679.69;;;-9.49;39.63
54122;BME280;40029;58.708;50.190;2022-11-18T21:15:00;100680.22;;;-9.55;39.38
54122;BME280;40029;58.708;50.190;2022-11-18T21:17:31;100683.50;;;-9.56;39.46
54122;BME280;40029;58.708;50.190;2022-11-18T21:20:03;100670.88;;;-9.56;39.29
54122;BME280;40029;58.708;50.190;2022-11-18T21:22:55;100685.44;;;-9.67;39.46
54122;BME280;40029;58.708;50.190;2022-11-18T21:25:26;100683.78;;;-9.66;39.71
54122;BME280;40029;58.708;50.190;2022-11-18T21:27:57;100682.75;;;-9.55;39.33
54122;BME280;40029;58.708;50.190;2022-11-18T21:30:28;100684.22;;;-9.59;39.34
54122;BME280;40029;58.708;50.190;2022-11-18T21:32:59;100669.06;;;-9.88;39.72
54122;BME280;40029;58.708;50.190;2022-11-18T21:35:31;100688.75;;;-9.68;39.61
54122;BME280;40029;58.708;50.190;2022-11-18T21:38:02;100690.47;;;-9.52;39.15
54122;BME280;40029;58.708;50.190;2022-11-18T21:40:34;100691.88;;;-9.72;38.97
54122;BME280;40029;58.708;50.190;2022-11-18T21:43:05;100689.53;;;-9.54;39.21
54122;BME280;40029;58.708;50.190;2022-11-18T21:45:36;100693.59;;;-9.56;39.13
54122;BME280;40029;58.708;50.190;2022-11-18T21:48:07;100694.75;;;-9.51;39.12
54122;BME280;40029;58.708;50.190;2022-11-18T21:50:38;100695.50;;;-9.52;39.01
54122;BME280;40029;58.708;50.190;2022-11-18T21:53:09;100693.16;;;-9.49;38.92
54122;BME280;40029;58.708;50.190;2022-11-18T21:55:40;100689.97;;;-9.46;38.90
54122;BME280;40029;58.708;50.190;2022-11-18T21:58:11;100689.09;;;-9.47;38.46
54122;BME280;40029;58.708;50.190;2022-11-18T22:00:42;100688.81;;;-9.37;38.50
54122;BME280;40029;58.708;50.190;2022-11-18T22:03:13;100697.94;;;-9.39;38.49
54122;BME280;40029;58.708;50.190;2022-11-18T22:05:44;100689.50;;;-9.39;38.66
54122;BME280;40029;58.708;50.190;2022-11-18T22:08:15;100625.78;;;-9.81;38.62
54122;BME280;40029;58.708;50.190;2022-11-18T22:10:47;100705.19;;;-9.30;38.45
54122;BME280;40029;58.708;50.190;2022-11-18T22:13:18;100704.81;;;-9.36;38.41
54122;BME280;40029;58.708;50.190;2022-11-18T22:16:07;100711.53;;;-9.37;38.08
54122;BME280;40029;58.708;50.190;2022-11-18T22:18:41;100713.72;;;-9.43;38.80
54122;BME280;40029;58.708;50.190;2022-11-18T22:21:17;100707.34;;;-9.66;38.96
54122;BME280;40029;58.708;50.190;2022-11-18T22:23:49;100709.84;;;-9.66;38.76
54122;BME280;40029;58.708;50.190;2022-11-18T22:26:20;100721.94;;;-9.60;38.94
54122;BME280;40029;58.708;50.190;2022-11-18T22:28:53;100735.16;;;-9.64;39.11
54122;BME280;40029;58.708;50.190;2022-11-18T22:31:26;100736.72;;;-9.66;38.92
54122;BME280;40029;58.708;50.190;2022-11-18T22:33:57;100735.53;;;-9.58;38.99
54122;BME280;40029;58.708;50.190;2022-11-18T22:36:28;100741.63;;;-9.54;38.31
54122;BME280;40029;58.708;50.190;2022-11-18T22:38:59;100735.88;;;-9.52;38.23
54122;BME280;40029;58.708;50.190;2022-11-18T22:41:30;100740.91;;;-9.52;38.33
54122;BME280;40029;58.708;50.190;2022-11-18T22:44:20;100746.34;;;-9.46;38.20
54122;BME280;40029;58.708;50.190;2022-11-18T22:46:52;100689.09;;;-9.76;38.39
54122;BME280;40029;58.708;50.190;2022-11-18T22:49:23;100738.16;;;-9.42;38.16
54122;BME280;40029;58.708;50.190;2022-11-18T22:51:54;100744.84;;;-9.42;38.45
54122;BME280;40029;58.708;50.190;2022-11-18T22:54:25;100686.63;;;-9.75;38.42
54122;BME280;40029;58.708;50.190;2022-11-18T22:56:56;100745.00;;;-9.54;38.36
54122;BME280;40029;58.708;50.190;2022-11-18T22:59:27;100756.91;;;-9.51;38.23
54122;BME280;40029;58.708;50.190;2022-11-18T23:01:58;100759.47;;;-9.37;38.10
54122;BME280;40029;58.708;50.190;2022-11-18T23:04:31;100725.53;;;-9.42;37.64
54122;BME280;40029;58.708;50.190;2022-11-18T23:07:02;100755.66;;;-9.30;37.87
54122;BME280;40029;58.708;50.190;2022-11-18T23:09:33;100660.25;;;-9.95;37.92
54122;BME280;40029;58.708;50.190;2022-11-18T23:12:04;100692.88;;;-9.83;38.31
54122;BME280;40029;58.708;50.190;2022-11-18T23:14:53;100757.72;;;-9.38;37.84
54122;BME280;40029;58.708;50.190;2022-11-18T23:17:24;100769.28;;;-9.41;38.31
54122;BME280;40029;58.708;50.190;2022-11-18T23:19:55;100767.78;;;-9.52;38.80
54122;BME280;40029;58.708;50.190;2022-11-18T23:22:26;100762.81;;;-9.66;39.01
54122;BME280;40029;58.708;50.190;2022-11-18T23:24:57;100762.13;;;-9.63;39.01
54122;BME280;40029;58.708;50.190;2022-11-18T23:27:28;100714.31;;;-10.04;38.97
54122;BME280;40029;58.708;50.190;2022-11-18T23:29:59;100755.72;;;-9.86;39.45
54122;BME280;40029;58.708;50.190;2022-11-18T23:32:30;100754.44;;;-9.79;39.16
54122;BME280;40029;58.708;50.190;2022-11-18T23:35:01;100773.72;;;-9.52;39.04
54122;BME280;40029;58.708;50.190;2022-11-18T23:37:33;100776.22;;;-9.52;38.58
54122;BME280;40029;58.708;50.190;2022-11-18T23:40:05;100780.84;;;-9.45;38.58
54122;BME280;40029;58.708;50.190;2022-11-18T23:42:36;100786.63;;;-9.33;38.84
54122;BME280;40029;58.708;50.190;2022-11-18T23:45:07;100789.66;;;-9.38;38.52
54122;BME280;40029;58.708;50.190;2022-11-18T23:47:38;100791.94;;;-9.43;38.73
54122;BME280;40029;58.708;50.190;2022-11-18T23:50:09;100797.41;;;-9.35;38.69
54122;BME280;40029;58.708;50.190;2022-11-18T23:52:40;100784.56;;;-9.68;38.56
54122;BME280;40029;58.708;50.190;2022-11-18T23:55:12;100797.84;;;-9.42;38.56
54122;BME280;40029;58.708;50.190;2022-11-18T23:57:43;100806.88;;;-9.46;38.27
